createdAt,value
2023-09-19T00:00:40.506Z,98694.31
2023-09-19T00:03:06.827Z,98696.75
2023-09-19T00:05:33.858Z,98692.34
2023-09-19T00:08:00.053Z,98698.34
2023-09-19T00:10:27.802Z,98706.72
2023-09-19T00:12:54.040Z,98704.09
2023-09-19T00:15:20.236Z,98698.00
2023-09-19T00:17:46.570Z,98705.34
2023-09-19T00:20:12.894Z,98708.56
2023-09-19T00:22:39.124Z,98715.88
2023-09-19T00:25:07.848Z,98735.44
2023-09-19T00:27:34.044Z,98723.63
2023-09-19T00:30:00.271Z,98721.19
2023-09-19T00:32:27.636Z,98726.69
2023-09-19T00:34:54.007Z,98724.13
2023-09-19T00:37:23.079Z,98725.22
2023-09-19T00:39:49.516Z,98731.63
2023-09-19T00:42:16.256Z,98709.72
2023-09-19T00:44:42.471Z,98704.00
2023-09-19T00:47:08.909Z,98728.13
2023-09-19T00:49:35.295Z,98729.69
2023-09-19T00:52:01.499Z,98741.72
2023-09-19T00:54:27.695Z,98736.13
2023-09-19T00:56:53.905Z,98734.44
2023-09-19T00:59:20.327Z,98740.19
2023-09-19T01:01:46.949Z,98748.03
2023-09-19T01:04:13.379Z,98739.81
2023-09-19T01:06:39.751Z,98752.91
2023-09-19T01:09:09.006Z,98750.84
2023-09-19T01:11:35.210Z,98746.91
2023-09-19T01:14:01.406Z,98748.53
2023-09-19T01:16:27.715Z,98750.00
2023-09-19T01:18:55.276Z,98746.84
2023-09-19T01:21:21.453Z,98751.28
2023-09-19T01:23:47.729Z,98749.47
2023-09-19T01:26:16.072Z,98744.75
2023-09-19T01:28:42.662Z,98765.97
2023-09-19T01:31:09.363Z,98759.78
2023-09-19T01:33:36.659Z,98769.03
2023-09-19T01:36:02.867Z,98780.22
2023-09-19T01:38:29.109Z,98766.31
2023-09-19T01:40:55.402Z,98771.50
2023-09-19T01:43:21.813Z,98788.91
2023-09-19T01:45:48.133Z,98786.34
2023-09-19T01:48:14.547Z,98787.88
2023-09-19T01:50:40.786Z,98777.09
2023-09-19T01:53:06.958Z,98779.19
2023-09-19T01:55:33.210Z,98787.53
2023-09-19T01:57:59.402Z,98786.72
2023-09-19T02:00:25.594Z,98791.72
2023-09-19T02:02:51.946Z,98789.81
2023-09-19T02:05:18.205Z,98793.06
2023-09-19T02:07:44.444Z,98800.34
2023-09-19T02:10:10.715Z,98798.41
2023-09-19T02:15:21.882Z,98791.97
2023-09-19T02:17:48.249Z,98792.06
2023-09-19T02:20:14.458Z,98801.78
2023-09-19T02:22:40.658Z,98797.13
2023-09-19T02:25:06.965Z,98802.38
2023-09-19T02:27:33.229Z,98801.66
2023-09-19T02:29:59.636Z,98809.63
2023-09-19T02:32:26.037Z,98807.66
2023-09-19T02:34:52.361Z,98811.91
2023-09-19T02:37:18.640Z,98814.81
2023-09-19T02:39:44.951Z,98808.31
2023-09-19T02:42:11.162Z,98813.00
2023-09-19T02:44:37.348Z,98803.84
2023-09-19T02:47:03.988Z,98815.25
2023-09-19T02:49:30.469Z,98815.25
2023-09-19T02:51:56.673Z,98815.16
2023-09-19T02:57:06.830Z,98822.81
2023-09-19T02:59:33.054Z,98823.16
2023-09-19T03:01:59.478Z,98825.88
2023-09-19T03:04:25.840Z,98826.56
2023-09-19T03:06:52.113Z,98834.75
2023-09-19T03:09:20.796Z,98836.81
2023-09-19T03:11:47.023Z,98838.06
2023-09-19T03:14:13.308Z,98851.03
2023-09-19T03:16:39.657Z,98851.69
2023-09-19T03:19:07.123Z,98852.19
2023-09-19T03:21:33.368Z,98848.41
2023-09-19T03:23:59.740Z,98877.47
2023-09-19T03:26:25.962Z,98874.03
2023-09-19T03:28:52.232Z,98871.69
2023-09-19T03:31:18.528Z,98877.66
2023-09-19T03:33:45.916Z,98887.25
2023-09-19T03:36:12.122Z,98875.81
2023-09-19T03:38:38.332Z,98866.50
2023-09-19T03:41:04.678Z,98875.34
2023-09-19T03:43:30.975Z,98864.28
2023-09-19T03:45:57.208Z,98865.94
2023-09-19T03:48:23.463Z,98855.50
2023-09-19T03:50:49.845Z,98853.53
2023-09-19T03:53:16.032Z,98865.47
2023-09-19T03:55:42.250Z,98870.72
2023-09-19T03:58:08.573Z,98862.38
2023-09-19T04:00:35.944Z,98864.34
2023-09-19T04:03:04.055Z,98873.47
2023-09-19T04:05:30.337Z,98862.59
2023-09-19T04:07:56.575Z,98870.31
2023-09-19T04:10:22.810Z,98853.84
2023-09-19T04:20:55.747Z,98856.81
2023-09-19T04:23:21.973Z,98858.53
2023-09-19T04:25:48.296Z,98860.50
2023-09-19T04:28:17.608Z,98862.41
2023-09-19T04:30:43.875Z,98860.50
2023-09-19T04:33:10.220Z,98852.09
2023-09-19T04:35:40.710Z,98860.06
2023-09-19T04:38:06.914Z,98867.09
2023-09-19T04:40:33.157Z,98857.03
2023-09-19T04:42:59.366Z,98862.41
2023-09-19T04:45:25.688Z,98865.09
2023-09-19T04:47:52.190Z,98870.03
2023-09-19T04:50:18.674Z,98864.47
2023-09-19T04:52:49.532Z,98861.78
2023-09-19T04:55:15.777Z,98860.44
2023-09-19T04:57:42.004Z,98863.97
2023-09-19T05:00:08.163Z,98865.81
2023-09-19T05:02:35.614Z,98880.19
2023-09-19T05:05:01.957Z,98878.69
2023-09-19T05:07:28.370Z,98875.50
2023-09-19T05:09:54.631Z,98870.50
2023-09-19T05:12:21.138Z,98874.13
2023-09-19T05:14:47.485Z,98879.50
2023-09-19T05:17:13.918Z,98874.34
2023-09-19T05:19:40.248Z,98891.44
2023-09-19T05:22:06.450Z,98892.25
2023-09-19T05:24:32.623Z,98901.81
2023-09-19T05:26:58.805Z,98900.00
2023-09-19T05:29:25.020Z,98911.66
2023-09-19T05:31:51.405Z,98904.44
2023-09-19T05:34:17.788Z,98917.84
2023-09-19T05:36:44.004Z,98916.00
2023-09-19T05:39:10.246Z,98929.66
2023-09-19T05:41:36.525Z,98933.28
2023-09-19T05:44:04.261Z,98934.53
2023-09-19T05:46:30.655Z,98933.63
2023-09-19T05:48:56.920Z,98933.25
2023-09-19T05:51:23.108Z,98932.91
2023-09-19T05:53:49.648Z,98937.34
2023-09-19T05:56:15.809Z,98937.94
2023-09-19T05:58:42.268Z,98947.06
2023-09-19T06:01:08.577Z,98954.53
2023-09-19T06:03:42.857Z,98949.94
2023-09-19T06:06:09.448Z,98961.53
2023-09-19T06:08:39.886Z,98960.94
2023-09-19T06:11:06.187Z,98963.25
2023-09-19T06:13:32.613Z,98964.47
2023-09-19T06:16:05.122Z,98971.63
2023-09-19T06:18:31.375Z,98974.75
2023-09-19T06:21:00.170Z,98975.41
2023-09-19T06:23:41.903Z,98978.59
2023-09-19T06:29:13.184Z,98963.66
2023-09-19T06:34:37.757Z,98969.03
2023-09-19T06:39:50.216Z,98959.44
2023-09-19T06:42:21.191Z,98958.38
2023-09-19T06:53:35.046Z,98979.59
2023-09-19T06:59:03.714Z,98960.09
2023-09-19T07:21:23.904Z,98985.56
2023-09-19T07:23:40.661Z,98974.44
2023-09-19T07:26:07.340Z,98989.66
2023-09-19T07:34:07.626Z,98974.34
2023-09-19T07:39:23.306Z,98996.63
2023-09-19T07:50:03.725Z,98998.16
2023-09-19T07:52:29.990Z,98990.47
2023-09-19T07:54:56.187Z,98993.34
2023-09-19T07:57:22.378Z,99010.22
2023-09-19T07:59:48.521Z,98990.53
2023-09-19T08:02:14.719Z,99000.44
2023-09-19T08:04:41.221Z,98992.03
2023-09-19T08:07:07.477Z,99002.44
2023-09-19T08:09:33.656Z,98989.69
2023-09-19T08:11:59.793Z,98997.75
2023-09-19T08:14:25.947Z,99009.84
2023-09-19T08:16:52.421Z,99011.28
2023-09-19T08:19:18.853Z,99006.94
2023-09-19T08:21:44.998Z,99011.19
2023-09-19T08:24:11.169Z,99017.66
2023-09-19T08:26:37.364Z,99020.63
2023-09-19T08:31:29.788Z,99020.13
2023-09-19T08:33:56.187Z,99025.84
2023-09-19T08:36:22.370Z,99034.81
2023-09-19T08:38:48.607Z,99037.03
2023-09-19T08:41:14.817Z,99028.59
2023-09-19T08:43:41.248Z,99046.81
2023-09-19T08:46:07.665Z,99034.31
2023-09-19T08:48:33.830Z,99032.69
2023-09-19T08:51:00.008Z,99046.69
2023-09-19T08:53:26.162Z,99039.69
2023-09-19T08:55:52.342Z,99033.25
2023-09-19T08:58:18.576Z,99032.09
2023-09-19T09:00:44.751Z,99028.06
2023-09-19T09:03:11.001Z,99031.91
2023-09-19T09:05:37.258Z,99022.81
2023-09-19T09:08:03.481Z,99029.91
2023-09-19T09:10:29.686Z,99043.75
2023-09-19T09:12:55.835Z,99036.22
2023-09-19T09:15:22.011Z,99037.13
2023-09-19T09:17:48.259Z,99037.19
2023-09-19T09:20:14.495Z,99021.09
2023-09-19T09:22:40.701Z,99036.22
2023-09-19T09:25:06.890Z,99013.38
2023-09-19T09:27:33.176Z,99024.47
2023-09-19T09:29:59.560Z,99036.56
2023-09-19T09:32:25.766Z,99030.84
2023-09-19T09:34:52.187Z,99025.66
2023-09-19T09:37:18.367Z,99024.56
2023-09-19T09:39:44.531Z,99028.03
2023-09-19T09:42:10.673Z,99018.22
2023-09-19T09:44:37.064Z,99018.59
2023-09-19T09:47:03.274Z,99029.38
2023-09-19T09:49:29.524Z,99031.00
2023-09-19T09:51:55.691Z,99012.28
2023-09-19T09:54:21.867Z,99026.75
2023-09-19T09:56:48.024Z,99026.50
2023-09-19T09:59:14.185Z,99000.16
2023-09-19T10:01:40.467Z,99013.28
2023-09-19T10:04:06.838Z,99009.47
2023-09-19T10:06:33.022Z,99023.56
2023-09-19T10:08:59.181Z,99012.59
2023-09-19T10:11:25.361Z,99013.81
2023-09-19T10:13:51.554Z,99003.88
2023-09-19T10:16:17.776Z,98998.16
2023-09-19T10:18:43.967Z,99001.25
2023-09-19T10:21:10.246Z,99010.72
2023-09-19T10:23:36.391Z,99000.38
2023-09-19T10:26:02.620Z,98993.97
2023-09-19T10:28:28.871Z,98990.63
2023-09-19T10:33:39.198Z,98969.06
2023-09-19T10:36:05.654Z,98982.75
2023-09-19T10:38:31.783Z,98982.81
2023-09-19T10:40:58.081Z,98993.00
2023-09-19T10:43:24.283Z,98975.75
2023-09-19T10:45:50.532Z,98982.66
2023-09-19T10:48:16.893Z,98975.41
2023-09-19T10:50:43.067Z,98988.41
2023-09-19T10:55:53.232Z,98971.19
2023-09-19T10:58:19.525Z,98974.28
2023-09-19T11:00:45.681Z,98973.31
2023-09-19T11:11:36.542Z,98978.66
2023-09-19T11:14:02.874Z,98981.44
2023-09-19T11:16:29.112Z,98980.50
2023-09-19T11:18:55.616Z,98982.13
2023-09-19T11:24:05.689Z,98969.53
2023-09-19T11:26:31.835Z,98974.84
2023-09-19T11:28:58.148Z,98952.69
2023-09-19T11:31:24.486Z,98981.28
2023-09-19T11:33:50.618Z,98960.81
2023-09-19T11:36:17.046Z,98964.50
2023-09-19T11:38:43.526Z,98959.94
2023-09-19T11:41:09.786Z,98957.13
2023-09-19T11:43:36.207Z,98958.75
2023-09-19T11:46:02.518Z,98956.78
2023-09-19T11:48:28.859Z,98963.41
2023-09-19T11:50:55.074Z,98959.09
2023-09-19T11:53:21.231Z,98978.25
2023-09-19T11:55:47.497Z,98968.25
2023-09-19T11:58:13.816Z,98965.06
2023-09-19T12:06:20.568Z,98970.72
2023-09-19T12:14:27.384Z,98981.66
2023-09-19T12:16:53.705Z,98972.63
2023-09-19T12:19:19.912Z,98974.78
2023-09-19T12:21:46.070Z,98972.09
2023-09-19T12:24:12.360Z,98966.75
2023-09-19T12:26:38.517Z,98948.03
2023-09-19T12:29:04.698Z,98951.28
2023-09-19T12:31:30.887Z,98938.50
2023-09-19T12:33:57.290Z,98953.00
2023-09-19T12:36:23.521Z,98947.75
2023-09-19T12:38:49.747Z,98942.22
2023-09-19T12:41:17.937Z,98932.47
2023-09-19T12:43:44.410Z,98926.34
2023-09-19T12:46:11.906Z,98933.72
2023-09-19T12:48:38.253Z,98936.16
2023-09-19T12:51:04.415Z,98923.84
2023-09-19T12:53:30.738Z,98928.00
2023-09-19T12:55:57.139Z,98920.69
2023-09-19T12:58:23.439Z,98916.06
2023-09-19T13:00:49.713Z,98917.38
2023-09-19T13:03:16.092Z,98914.97
2023-09-19T13:05:42.321Z,98893.81
2023-09-19T13:08:08.498Z,98906.38
2023-09-19T13:10:34.710Z,98921.41
2023-09-19T13:13:00.861Z,98914.97
2023-09-19T13:15:27.040Z,98913.47
2023-09-19T13:17:53.343Z,98902.56
2023-09-19T13:20:21.570Z,98915.97
2023-09-19T13:22:48.865Z,98912.72
2023-09-19T13:25:15.210Z,98911.22
2023-09-19T13:27:41.442Z,98906.34
2023-09-19T13:30:07.690Z,98903.03
2023-09-19T13:32:34.047Z,98911.97
2023-09-19T13:35:00.326Z,98912.41
2023-09-19T13:37:26.509Z,98910.47
2023-09-19T13:39:52.720Z,98906.81
2023-09-19T13:42:18.892Z,98909.97
2023-09-19T13:44:45.091Z,98918.75
2023-09-19T13:47:11.459Z,98906.59
2023-09-19T13:49:37.834Z,98906.13
2023-09-19T13:52:04.006Z,98904.56
2023-09-19T13:54:30.148Z,98917.63
2023-09-19T13:56:56.299Z,98928.63
2023-09-19T13:59:22.499Z,98899.00
2023-09-19T14:01:48.996Z,98906.69
2023-09-19T14:04:15.178Z,98901.09
2023-09-19T14:06:41.365Z,98909.22
2023-09-19T14:09:07.537Z,98908.78
2023-09-19T14:11:33.666Z,98904.41
2023-09-19T14:13:59.850Z,98920.13
2023-09-19T14:53:22.441Z,98916.59
2023-09-19T14:55:48.858Z,98913.66
2023-09-19T14:58:15.038Z,98920.94
2023-09-19T15:00:41.310Z,98935.91
2023-09-19T15:03:07.659Z,98913.31
2023-09-19T15:05:34.078Z,98923.00
2023-09-19T15:08:00.521Z,98917.78
2023-09-19T15:10:26.784Z,98923.16
2023-09-19T15:12:52.946Z,98904.91
2023-09-19T15:15:19.091Z,98917.50
2023-09-19T15:17:45.305Z,98915.03
2023-09-19T15:20:12.666Z,98926.34
2023-09-19T15:22:41.429Z,98925.56
2023-09-19T15:25:07.993Z,98919.44
2023-09-19T15:27:36.585Z,98927.88
2023-09-19T15:30:02.953Z,98928.66
2023-09-19T15:32:29.313Z,98929.06
2023-09-19T15:34:55.780Z,98925.81
2023-09-19T15:37:22.094Z,98924.13
2023-09-19T15:39:48.427Z,98928.59
2023-09-19T15:42:14.668Z,98923.25
2023-09-19T15:44:40.808Z,98919.16
2023-09-19T16:01:18.296Z,98932.63
2023-09-19T16:03:44.659Z,98924.97
2023-09-19T16:06:10.824Z,98937.53
2023-09-19T16:08:36.968Z,98933.41
2023-09-19T16:11:03.138Z,98895.72
2023-09-19T16:13:29.325Z,98912.84
2023-09-19T16:15:55.561Z,98925.34
2023-09-19T16:18:21.863Z,98919.28
2023-09-19T16:20:48.179Z,98912.00
2023-09-19T16:23:14.476Z,98912.81
2023-09-19T16:25:40.666Z,98916.56
2023-09-19T16:28:06.827Z,98910.44
2023-09-19T16:30:32.992Z,98906.84
2023-09-19T16:32:59.151Z,98906.31
2023-09-19T16:35:25.316Z,98917.56
2023-09-19T16:37:51.580Z,98908.00
2023-09-19T16:40:17.782Z,98912.75
2023-09-19T16:42:43.929Z,98919.19
2023-09-19T16:45:10.116Z,98917.09
2023-09-19T16:47:36.344Z,98914.19
2023-09-19T16:50:02.598Z,98900.31
2023-09-19T16:52:28.951Z,98901.19
2023-09-19T16:54:55.105Z,98901.25
2023-09-19T16:57:21.313Z,98901.75
2023-09-19T16:59:47.469Z,98900.50
2023-09-19T17:02:13.785Z,98908.16
2023-09-19T17:04:40.055Z,98911.25
2023-09-19T17:07:06.281Z,98912.97
2023-09-19T17:09:32.444Z,98910.09
2023-09-19T17:11:58.603Z,98908.44
2023-09-19T17:14:24.785Z,98915.09
2023-09-19T17:16:51.066Z,98912.25
2023-09-19T17:19:17.234Z,98913.81
2023-09-19T17:21:43.403Z,98916.63
2023-09-19T17:24:09.664Z,98923.41
2023-09-19T17:26:35.825Z,98911.69
2023-09-19T17:29:02.037Z,98920.06
2023-09-19T17:31:28.233Z,98914.38
2023-09-19T17:33:54.423Z,98919.94
2023-09-19T17:36:20.572Z,98919.06
2023-09-19T17:38:46.818Z,98916.66
2023-09-19T17:41:13.000Z,98916.59
2023-09-19T17:43:39.274Z,98909.78
2023-09-19T17:46:05.558Z,98915.06
2023-09-19T17:48:31.760Z,98915.44
2023-09-19T17:50:57.914Z,98919.03
2023-09-19T17:53:24.138Z,98912.53
2023-09-19T17:55:50.480Z,98909.69
2023-09-19T17:58:16.755Z,98913.66
2023-09-19T18:03:35.626Z,98912.84
2023-09-19T18:06:02.676Z,98911.56
2023-09-19T18:08:31.606Z,98916.00
2023-09-19T18:10:57.969Z,98917.63
2023-09-19T18:13:25.322Z,98930.13
2023-09-19T18:15:51.810Z,98924.19
2023-09-19T18:18:21.045Z,98930.22
2023-09-19T18:20:49.694Z,98930.59
2023-09-19T18:23:16.378Z,98932.66
2023-09-19T18:25:42.705Z,98942.00
2023-09-19T18:28:21.356Z,98930.38
2023-09-19T18:30:50.656Z,98939.63
2023-09-19T18:34:06.145Z,98931.19
2023-09-19T18:38:53.173Z,98938.44
2023-09-19T18:41:23.161Z,98935.69
2023-09-19T18:43:54.510Z,98940.16
2023-09-19T18:49:11.233Z,98941.03
2023-09-19T18:51:43.574Z,98952.31
2023-09-19T18:54:14.042Z,98952.25
2023-09-19T18:59:35.869Z,98955.56
2023-09-19T19:05:01.056Z,98938.72
2023-09-19T19:07:35.923Z,98939.97
2023-09-19T19:10:03.312Z,98938.22
2023-09-19T19:12:35.736Z,98945.13
2023-09-19T19:15:03.444Z,98930.09
2023-09-19T19:23:08.254Z,98935.84
2023-09-19T19:28:29.354Z,98932.00
2023-09-19T19:31:02.912Z,98932.38
2023-09-19T19:33:32.129Z,98931.56
2023-09-19T19:36:01.048Z,98937.16
2023-09-19T19:38:33.608Z,98936.34
2023-09-19T19:43:54.497Z,98919.03
2023-09-19T19:46:20.794Z,98928.19
2023-09-19T19:48:52.534Z,98905.63
2023-09-19T19:51:21.150Z,98936.66
2023-09-19T19:53:47.349Z,98927.97
2023-09-19T19:56:15.646Z,98935.31
2023-09-19T19:58:42.475Z,98919.19
2023-09-19T20:01:17.777Z,98916.75
2023-09-19T20:03:44.163Z,98927.69
2023-09-19T20:06:12.713Z,98939.19
2023-09-19T20:08:41.006Z,98933.25
2023-09-19T20:11:16.883Z,98937.56
2023-09-19T20:13:44.550Z,98916.69
2023-09-19T20:16:12.685Z,98935.31
2023-09-19T20:18:39.200Z,98943.03
2023-09-19T20:21:05.575Z,98951.06
2023-09-19T20:23:34.983Z,98954.19
2023-09-19T20:26:05.195Z,98949.72
2023-09-19T20:28:32.972Z,98950.59
2023-09-19T20:31:02.756Z,98945.28
2023-09-19T20:33:34.674Z,98931.53
2023-09-19T20:36:03.077Z,98919.06
2023-09-19T20:38:30.550Z,98916.19
2023-09-19T20:40:57.031Z,98920.53
2023-09-19T20:43:23.299Z,98910.06
2023-09-19T20:45:49.656Z,98930.13
2023-09-19T20:51:00.033Z,98933.22
2023-09-19T20:53:26.289Z,98934.06
2023-09-19T20:55:52.575Z,98937.31
2023-09-19T20:58:19.058Z,98932.00
2023-09-19T21:00:49.856Z,98918.38
2023-09-19T21:03:20.413Z,98936.19
2023-09-19T21:05:46.696Z,98944.16
2023-09-19T21:08:13.322Z,98940.78
2023-09-19T21:10:46.515Z,98935.59
2023-09-19T21:13:16.406Z,98945.69
2023-09-19T21:15:47.901Z,98900.41
2023-09-19T21:18:18.141Z,98942.03
2023-09-19T21:20:44.419Z,98947.22
2023-09-19T21:23:12.957Z,98933.50
2023-09-19T21:25:40.515Z,98941.75
2023-09-19T21:28:06.726Z,98928.13
2023-09-19T21:30:40.065Z,98925.88
2023-09-19T21:33:07.453Z,98932.41
2023-09-19T21:35:33.743Z,98939.50
2023-09-19T21:37:59.968Z,98937.50
2023-09-19T21:40:26.201Z,98942.69
2023-09-19T21:42:52.409Z,98941.34
2023-09-19T21:45:18.645Z,98928.00
2023-09-19T21:47:44.947Z,98939.72
2023-09-19T21:50:11.346Z,98927.63
2023-09-19T21:52:37.541Z,98935.22
2023-09-19T21:55:03.827Z,98925.94
2023-09-19T21:57:30.082Z,98931.06
2023-09-19T21:59:56.296Z,98927.50
2023-09-19T22:02:22.849Z,98931.44
2023-09-19T22:04:51.697Z,98926.91
2023-09-19T22:07:18.327Z,98925.97
2023-09-19T22:09:44.743Z,98929.97
2023-09-19T22:12:11.037Z,98928.84
2023-09-19T22:14:37.286Z,98923.66
2023-09-19T22:17:04.701Z,98931.22
2023-09-19T22:19:34.198Z,98920.69
2023-09-19T22:22:03.395Z,98925.59
2023-09-19T22:24:29.663Z,98918.78
2023-09-19T22:26:58.040Z,98934.94
2023-09-19T22:29:37.606Z,98925.69
2023-09-19T22:32:15.564Z,98926.84
2023-09-19T22:34:57.346Z,98919.78
2023-09-19T22:37:25.058Z,98916.31
2023-09-19T22:39:51.402Z,98916.72
2023-09-19T22:42:17.776Z,98915.03
2023-09-19T22:44:51.560Z,98912.59
2023-09-19T22:47:20.949Z,98909.03
2023-09-19T22:49:49.331Z,98920.59
2023-09-19T22:52:15.572Z,98923.13
2023-09-19T22:54:41.749Z,98917.41
2023-09-19T22:57:07.945Z,98919.13
2023-09-19T22:59:34.373Z,98934.44
2023-09-19T23:02:00.730Z,98923.97
2023-09-19T23:04:27.149Z,98929.25
2023-09-19T23:06:53.856Z,98925.41
2023-09-19T23:09:20.225Z,98925.41
2023-09-19T23:11:47.737Z,98924.31
2023-09-19T23:14:14.089Z,98926.69
2023-09-19T23:16:40.290Z,98925.94
2023-09-19T23:19:10.684Z,98930.47
2023-09-19T23:21:37.025Z,98922.59
2023-09-19T23:24:05.359Z,98928.63
2023-09-19T23:26:32.837Z,98925.56
2023-09-19T23:28:59.162Z,98931.13
2023-09-19T23:31:25.418Z,98932.75
2023-09-19T23:33:51.834Z,98934.41
2023-09-19T23:36:20.033Z,98935.22
2023-09-19T23:38:46.378Z,98936.78
2023-09-19T23:41:16.968Z,98928.84
2023-09-19T23:43:43.292Z,98932.06
2023-09-19T23:46:11.127Z,98938.94
2023-09-19T23:48:40.377Z,98926.84
2023-09-19T23:51:09.275Z,98936.13
2023-09-19T23:53:44.297Z,98920.84
2023-09-19T23:56:19.129Z,98930.63
2023-09-19T23:58:45.648Z,98926.53
